createdAt,value
2022-09-12T00:00:45.057Z,99244.81
2022-09-12T00:03:11.885Z,99237.06
2022-09-12T00:05:42.963Z,99224.44
2022-09-12T00:08:10.065Z,99200.31
2022-09-12T00:10:41.223Z,99237.28
2022-09-12T00:13:09.098Z,99238.47
2022-09-12T00:15:45.323Z,99186.19
2022-09-12T00:18:17.066Z,99237.91
2022-09-12T00:20:46.750Z,99233.88
2022-09-12T00:23:14.521Z,99231.19
2022-09-12T00:25:43.746Z,99212.81
2022-09-12T00:28:12.001Z,99215.50
2022-09-12T00:30:47.300Z,99223.63
2022-09-12T00:33:16.340Z,99228.53
2022-09-12T00:35:53.105Z,99204.41
2022-09-12T00:38:20.806Z,99203.03
2022-09-12T00:40:51.393Z,99218.38
2022-09-12T00:43:30.126Z,99215.53
2022-09-12T00:45:59.318Z,99207.78
2022-09-12T00:48:42.009Z,99198.00
2022-09-12T00:51:09.276Z,99158.72
2022-09-12T00:53:36.343Z,99206.59
2022-09-12T00:56:03.626Z,99181.13
2022-09-12T00:58:36.955Z,99213.38
2022-09-12T01:01:03.913Z,99186.03
2022-09-12T01:03:30.770Z,99166.47
2022-09-12T01:06:10.001Z,99202.06
2022-09-12T01:08:39.081Z,99153.44
2022-09-12T01:11:06.335Z,99191.59
2022-09-12T01:13:35.962Z,99185.19
2022-09-12T01:16:07.168Z,99160.19
2022-09-12T01:18:44.350Z,99175.03
2022-09-12T01:21:42.801Z,99190.22
2022-09-12T01:24:24.681Z,99184.84
2022-09-12T01:27:17.182Z,99180.31
2022-09-12T01:30:04.701Z,99138.69
2022-09-12T01:32:46.631Z,99184.03
2022-09-12T01:35:26.099Z,99187.72
2022-09-12T01:38:37.282Z,99172.38
2022-09-12T01:41:22.532Z,99176.78
2022-09-12T01:44:20.297Z,99136.81
2022-09-12T01:46:47.304Z,99171.88
2022-09-12T01:49:21.797Z,99133.78
2022-09-12T01:52:03.611Z,99151.47
2022-09-12T01:54:44.403Z,99174.56
2022-09-12T01:57:18.958Z,99152.31
2022-09-12T01:59:50.763Z,99135.44
2022-09-12T02:02:34.114Z,99120.63
2022-09-12T02:05:17.448Z,99154.00
2022-09-12T02:07:49.884Z,99135.13
2022-09-12T02:10:22.678Z,99157.72
2022-09-12T02:13:12.665Z,99160.91
2022-09-12T02:15:51.317Z,99160.41
2022-09-12T02:18:21.341Z,99154.84
2022-09-12T02:20:51.491Z,99130.22
2022-09-12T02:23:26.715Z,99143.53
2022-09-12T02:26:00.578Z,99153.34
2022-09-12T02:28:33.207Z,99143.22
2022-09-12T02:31:05.824Z,99154.00
2022-09-12T02:34:00.485Z,99151.78
2022-09-12T02:36:40.237Z,99150.47
2022-09-12T02:39:07.293Z,99152.16
2022-09-12T02:41:34.110Z,99133.94
2022-09-12T02:44:01.518Z,99105.94
2022-09-12T02:46:39.268Z,99139.34
2022-09-12T02:49:07.355Z,99141.88
2022-09-12T02:51:35.762Z,99138.16
2022-09-12T02:54:03.695Z,99132.91
2022-09-12T02:56:31.513Z,99116.94
2022-09-12T02:59:05.812Z,99152.31
2022-09-12T03:02:05.195Z,99126.69
2022-09-12T03:04:48.910Z,99131.41
2022-09-12T03:07:47.978Z,99103.09
2022-09-12T03:10:39.663Z,99133.94
2022-09-12T03:13:23.402Z,99122.31
2022-09-12T03:16:19.961Z,99137.16
2022-09-12T03:19:10.014Z,99132.94
2022-09-12T03:22:02.447Z,99135.81
2022-09-12T03:24:49.636Z,99122.81
2022-09-12T03:27:27.746Z,99136.66
2022-09-12T03:29:56.497Z,99103.78
2022-09-12T03:32:42.245Z,99127.53
2022-09-12T03:35:10.745Z,99142.19
2022-09-12T03:37:37.529Z,99126.53
2022-09-12T03:40:09.165Z,99128.38
2022-09-12T03:42:36.267Z,99119.44
2022-09-12T03:45:03.342Z,99094.84
2022-09-12T03:47:30.193Z,99140.34
2022-09-12T03:49:56.992Z,99100.06
2022-09-12T03:52:23.800Z,99124.84
2022-09-12T03:54:51.127Z,99098.53
2022-09-12T03:57:18.162Z,99094.00
2022-09-12T03:59:45.202Z,99128.72
2022-09-12T04:02:13.700Z,99110.34
2022-09-12T04:04:48.165Z,99129.75
2022-09-12T04:07:16.604Z,99121.81
2022-09-12T04:09:43.476Z,99106.28
2022-09-12T04:12:10.473Z,99129.41
2022-09-12T04:14:37.444Z,99126.00
2022-09-12T04:17:04.372Z,99121.94
2022-09-12T04:19:31.133Z,99140.84
2022-09-12T04:21:57.916Z,99095.34
2022-09-12T04:24:24.631Z,99097.50
2022-09-12T04:26:51.599Z,99102.91
2022-09-12T04:29:18.336Z,99126.34
2022-09-12T04:31:45.120Z,99115.88
2022-09-12T04:34:15.777Z,99131.22
2022-09-12T04:36:56.853Z,99132.75
2022-09-12T04:39:23.710Z,99084.88
2022-09-12T04:41:50.600Z,99134.06
2022-09-12T04:44:29.012Z,99104.09
2022-09-12T04:46:56.058Z,99122.94
2022-09-12T04:49:23.338Z,99108.59
2022-09-12T04:51:54.278Z,99085.63
2022-09-12T04:54:21.630Z,99098.19
2022-09-12T04:56:50.040Z,99093.25
2022-09-12T04:59:18.634Z,99140.13
2022-09-12T05:01:45.643Z,99106.03
2022-09-12T05:04:13.617Z,99079.06
2022-09-12T05:06:41.946Z,99116.19
2022-09-12T05:09:14.198Z,99152.63
2022-09-12T05:14:32.674Z,99136.28
2022-09-12T05:17:01.853Z,99137.13
2022-09-12T05:19:30.561Z,99163.44
2022-09-12T05:21:57.428Z,99161.94
2022-09-12T05:24:25.016Z,99170.19
2022-09-12T05:26:52.148Z,99182.50
2022-09-12T05:29:19.168Z,99176.09
2022-09-12T05:31:46.056Z,99161.75
2022-09-12T05:34:13.613Z,99125.50
2022-09-12T05:36:40.642Z,99188.03
2022-09-12T05:39:07.356Z,99190.44
2022-09-12T05:41:35.121Z,99192.78
2022-09-12T05:44:04.816Z,99168.63
2022-09-12T05:46:37.358Z,99197.81
2022-09-12T05:49:10.104Z,99195.13
2022-09-12T05:51:39.891Z,99194.63
2022-09-12T05:54:08.377Z,99160.88
2022-09-12T05:56:39.625Z,99199.69
2022-09-12T05:59:12.272Z,99181.31
2022-09-12T06:01:39.253Z,99201.16
2022-09-12T06:04:07.073Z,99200.97
2022-09-12T06:06:38.774Z,99202.69
2022-09-12T06:09:06.747Z,99166.44
2022-09-12T06:11:35.795Z,99193.81
2022-09-12T06:14:02.640Z,99185.38
2022-09-12T06:16:32.419Z,99194.13
2022-09-12T06:19:03.581Z,99197.00
2022-09-12T06:21:34.657Z,99166.50
2022-09-12T06:24:01.974Z,99197.31
2022-09-12T06:26:29.474Z,99192.81
2022-09-12T06:28:57.736Z,99192.47
2022-09-12T06:31:30.705Z,99188.19
2022-09-12T06:34:00.891Z,99192.53
2022-09-12T06:36:32.432Z,99191.63
2022-09-12T06:39:02.186Z,99189.16
2022-09-12T06:41:29.727Z,99207.75
2022-09-12T06:43:56.511Z,99208.22
2022-09-12T06:46:23.512Z,99180.97
2022-09-12T06:48:50.911Z,99204.44
2022-09-12T06:51:20.256Z,99180.97
2022-09-12T06:53:48.556Z,99209.56
2022-09-12T06:56:20.709Z,99210.69
2022-09-12T06:58:49.235Z,99210.16
2022-09-12T07:01:18.267Z,99215.16
2022-09-12T07:03:50.251Z,99181.50
2022-09-12T07:06:19.953Z,99218.97
2022-09-12T07:08:47.698Z,99180.47
2022-09-12T07:11:18.350Z,99193.03
2022-09-12T07:13:47.750Z,99204.25
2022-09-12T07:16:19.398Z,99209.97
2022-09-12T07:18:51.336Z,99184.06
2022-09-12T07:21:18.139Z,99206.69
2022-09-12T07:23:45.754Z,99188.09
2022-09-12T07:26:14.594Z,99210.34
2022-09-12T07:28:42.216Z,99190.50
2022-09-12T07:31:15.034Z,99227.38
2022-09-12T07:33:42.973Z,99198.91
2022-09-12T07:36:15.196Z,99205.13
2022-09-12T07:38:42.817Z,99235.16
2022-09-12T07:41:17.783Z,99232.59
2022-09-12T07:43:45.122Z,99221.38
2022-09-12T07:46:12.601Z,99215.47
2022-09-12T07:48:39.886Z,99228.28
2022-09-12T07:51:09.435Z,99224.59
2022-09-12T07:53:41.629Z,99227.09
2022-09-12T07:56:13.282Z,99199.19
2022-09-12T07:58:42.222Z,99228.06
2022-09-12T08:01:14.936Z,99212.69
2022-09-12T08:03:44.520Z,99200.53
2022-09-12T08:06:12.312Z,99220.84
2022-09-12T08:08:39.073Z,99222.03
2022-09-12T08:11:11.942Z,99192.66
2022-09-12T08:13:40.912Z,99182.78
2022-09-12T08:16:12.333Z,99208.59
2022-09-12T08:18:39.796Z,99201.53
2022-09-12T08:21:14.547Z,99225.00
2022-09-12T08:23:42.795Z,99218.41
2022-09-12T08:26:10.438Z,99203.94
2022-09-12T08:28:37.929Z,99176.50
2022-09-12T08:31:07.415Z,99200.19
2022-09-12T08:33:35.602Z,99207.31
2022-09-12T08:36:14.355Z,99200.00
2022-09-12T08:38:43.379Z,99219.91
2022-09-12T08:41:19.696Z,99218.63
2022-09-12T08:44:04.913Z,99204.81
2022-09-12T08:46:34.455Z,99204.16
2022-09-12T08:49:04.066Z,99218.63
2022-09-12T08:51:34.882Z,99197.03
2022-09-12T08:54:03.283Z,99213.63
2022-09-12T08:56:35.740Z,99197.84
2022-09-12T08:59:03.281Z,99205.97
2022-09-12T09:01:41.687Z,99186.28
2022-09-12T09:04:56.943Z,99204.06
2022-09-12T09:07:55.051Z,99207.63
2022-09-12T09:10:35.594Z,99169.22
2022-09-12T09:13:40.983Z,99171.63
2022-09-12T09:16:07.881Z,99195.97
2022-09-12T09:18:36.149Z,99161.25
2022-09-12T09:21:13.331Z,99153.72
2022-09-12T09:23:44.733Z,99178.16
2022-09-12T09:26:26.739Z,99170.53
2022-09-12T09:29:05.986Z,99186.59
2022-09-12T09:31:38.772Z,99177.06
2022-09-12T09:34:15.552Z,99176.53
2022-09-12T09:36:51.459Z,99184.47
2022-09-12T09:39:42.617Z,99186.22
2022-09-12T09:42:34.152Z,99180.06
2022-09-12T09:45:04.721Z,99151.81
2022-09-12T09:47:31.535Z,99175.44
2022-09-12T09:49:58.476Z,99157.25
2022-09-12T09:52:30.591Z,99142.31
2022-09-12T09:55:02.135Z,99147.22
2022-09-12T09:57:35.007Z,99169.44
2022-09-12T10:00:32.272Z,99174.59
2022-09-12T10:03:24.389Z,99161.47
2022-09-12T10:05:55.389Z,99152.78
2022-09-12T10:08:31.091Z,99159.56
2022-09-12T10:11:04.643Z,99140.84
2022-09-12T10:13:42.143Z,99160.03
2022-09-12T10:16:19.616Z,99155.06
2022-09-12T10:18:46.713Z,99117.44
2022-09-12T10:21:35.327Z,99134.94
2022-09-12T10:24:30.953Z,99144.88
2022-09-12T10:27:33.948Z,99124.38
2022-09-12T10:30:17.882Z,99108.13
2022-09-12T10:32:50.704Z,99131.00
2022-09-12T10:35:28.613Z,99124.28
2022-09-12T10:38:02.972Z,99103.91
2022-09-12T10:40:36.521Z,99125.16
2022-09-12T10:43:18.035Z,99101.31
2022-09-12T10:45:45.003Z,99096.84
2022-09-12T10:48:32.026Z,99115.63
2022-09-12T10:51:01.523Z,99078.72
2022-09-12T10:53:46.650Z,99092.06
2022-09-12T10:56:18.966Z,99104.66
2022-09-12T10:59:16.806Z,99103.13
2022-09-12T11:01:49.519Z,99070.69
2022-09-12T11:04:26.995Z,99099.59
2022-09-12T11:07:50.419Z,99095.28
2022-09-12T11:10:27.209Z,99105.72
2022-09-12T11:12:59.475Z,99087.03
2022-09-12T11:15:35.666Z,99090.16
2022-09-12T11:18:05.251Z,99096.94
2022-09-12T11:20:44.247Z,99089.47
2022-09-12T11:23:53.188Z,99109.25
2022-09-12T11:26:48.726Z,99102.66
2022-09-12T11:29:47.025Z,99089.84
2022-09-12T11:32:35.988Z,99107.25
2022-09-12T11:35:17.124Z,99100.00
2022-09-12T11:37:55.887Z,99075.13
2022-09-12T11:40:46.509Z,99094.63
2022-09-12T11:43:36.444Z,99099.03
2022-09-12T11:46:25.170Z,99061.28
2022-09-12T11:49:12.001Z,99099.56
2022-09-12T11:51:49.917Z,99091.91
2022-09-12T11:54:41.796Z,99070.97
2022-09-12T11:57:37.721Z,99105.72
2022-09-12T12:00:18.206Z,99075.09
2022-09-12T12:03:06.609Z,99103.34
2022-09-12T12:05:52.469Z,99090.53
2022-09-12T12:08:25.086Z,99084.16
2022-09-12T12:10:56.554Z,99065.28
2022-09-12T12:13:28.495Z,99091.66
2022-09-12T12:16:01.253Z,99056.03
2022-09-12T12:18:30.542Z,99082.53
2022-09-12T12:21:29.750Z,99067.09
2022-09-12T12:24:10.153Z,99077.19
2022-09-12T12:26:42.812Z,99068.09
2022-09-12T12:29:35.154Z,99067.78
2022-09-12T12:32:04.877Z,99076.72
2022-09-12T12:34:35.642Z,99074.88
2022-09-12T12:37:23.426Z,99074.47
2022-09-12T12:39:51.148Z,99071.91
2022-09-12T12:42:36.164Z,99078.31
2022-09-12T12:45:08.936Z,99065.03
2022-09-12T12:47:38.539Z,99066.53
2022-09-12T12:50:05.198Z,99064.81
2022-09-12T12:52:42.626Z,99044.59
2022-09-12T12:55:16.148Z,99047.06
2022-09-12T12:57:48.713Z,99054.44
2022-09-12T13:00:21.262Z,99062.97
2022-09-12T13:03:27.885Z,99021.06
2022-09-12T13:06:07.477Z,99062.22
2022-09-12T13:08:36.210Z,99064.59
2022-09-12T13:11:10.817Z,99017.00
2022-09-12T13:14:02.971Z,99064.38
2022-09-12T13:16:35.084Z,99053.38
2022-09-12T13:19:18.330Z,99054.13
2022-09-12T13:21:57.802Z,99036.09
2022-09-12T13:24:24.791Z,99054.50
2022-09-12T13:26:51.610Z,99050.31
2022-09-12T13:29:19.983Z,99048.50
2022-09-12T13:31:51.295Z,99051.03
2022-09-12T13:34:22.781Z,99042.63
2022-09-12T13:37:17.176Z,99044.81
2022-09-12T13:40:01.537Z,99027.66
2022-09-12T13:42:45.531Z,99020.25
2022-09-12T13:45:30.013Z,99045.22
2022-09-12T13:48:04.611Z,99028.59
2022-09-12T13:50:37.844Z,98985.13
2022-09-12T13:53:14.981Z,99011.72
2022-09-12T13:55:46.336Z,99032.91
2022-09-12T13:58:23.281Z,99029.53
2022-09-12T14:01:14.052Z,99000.09
2022-09-12T14:04:02.118Z,99022.06
2022-09-12T14:06:28.956Z,99001.31
2022-09-12T14:08:59.300Z,98991.13
2022-09-12T14:11:33.970Z,99000.78
2022-09-12T14:14:40.851Z,98998.19
2022-09-12T14:17:23.799Z,99023.56
2022-09-12T14:19:53.193Z,99001.22
2022-09-12T14:22:20.389Z,98995.38
2022-09-12T14:24:51.957Z,98998.84
2022-09-12T14:27:31.917Z,98985.72
2022-09-12T14:30:07.634Z,99016.94
2022-09-12T14:32:39.682Z,99018.81
2022-09-12T14:35:12.118Z,99016.72
2022-09-12T14:37:40.046Z,98989.06
2022-09-12T14:40:20.001Z,99003.94
2022-09-12T14:43:04.557Z,98972.38
2022-09-12T14:45:33.630Z,98981.16
2022-09-12T14:48:00.503Z,98999.53
2022-09-12T14:50:35.701Z,98996.69
2022-09-12T14:53:07.218Z,98989.06
2022-09-12T14:56:11.240Z,98992.56
2022-09-12T14:58:40.171Z,98961.56
2022-09-12T15:01:23.480Z,98997.78
2022-09-12T15:03:53.991Z,98986.91
2022-09-12T15:06:38.377Z,98992.91
2022-09-12T15:09:13.754Z,98993.03
2022-09-12T15:11:40.559Z,98991.38
2022-09-12T15:14:18.096Z,98977.41
2022-09-12T15:16:44.876Z,98990.22
2022-09-12T15:19:12.018Z,98995.16
2022-09-12T15:21:38.795Z,98972.56
2022-09-12T15:24:09.068Z,98951.00
2022-09-12T15:26:36.932Z,98983.69
2022-09-12T15:29:04.151Z,98984.09
2022-09-12T15:31:32.298Z,98988.25
2022-09-12T15:34:01.319Z,98949.69
2022-09-12T15:36:45.357Z,98984.03
2022-09-12T15:39:21.307Z,98978.72
2022-09-12T15:41:48.622Z,98949.16
2022-09-12T15:44:16.040Z,98942.75
2022-09-12T15:46:42.897Z,98967.63
2022-09-12T15:49:19.884Z,98974.13
2022-09-12T15:51:55.428Z,98978.31
2022-09-12T15:54:22.384Z,98965.06
2022-09-12T15:56:49.812Z,98963.28
2022-09-12T15:59:36.505Z,98972.16
2022-09-12T16:02:03.655Z,98936.00
2022-09-12T16:04:32.741Z,98945.81
2022-09-12T16:07:07.367Z,98972.81
2022-09-12T16:09:34.591Z,98966.94
2022-09-12T16:12:09.929Z,98963.44
2022-09-12T16:14:59.362Z,98978.03
2022-09-12T16:17:26.553Z,98976.91
2022-09-12T16:19:53.679Z,98977.69
2022-09-12T16:22:20.570Z,98969.19
2022-09-12T16:24:47.282Z,98963.94
2022-09-12T16:27:14.168Z,98955.34
2022-09-12T16:29:42.158Z,98930.84
2022-09-12T16:32:08.899Z,98946.50
2022-09-12T16:34:35.646Z,98949.94
2022-09-12T16:37:03.984Z,98938.00
2022-09-12T16:39:30.833Z,98935.69
2022-09-12T16:41:57.621Z,98957.31
2022-09-12T16:44:24.448Z,98966.31
2022-09-12T16:46:51.412Z,98949.97
2022-09-12T16:49:18.302Z,98958.38
2022-09-12T16:51:47.653Z,98944.53
2022-09-12T16:54:15.921Z,98963.34
2022-09-12T16:56:43.019Z,98935.84
2022-09-12T16:59:16.927Z,98946.03
2022-09-12T17:01:45.500Z,98955.69
2022-09-12T17:04:12.458Z,98916.94
2022-09-12T17:06:39.336Z,98956.88
2022-09-12T17:09:06.586Z,98923.66
2022-09-12T17:11:38.897Z,98928.06
2022-09-12T17:14:08.854Z,98935.44
2022-09-12T17:16:41.933Z,98930.78
2022-09-12T17:19:12.521Z,98950.59
2022-09-12T17:21:39.528Z,98950.47
2022-09-12T17:24:06.574Z,98952.47
2022-09-12T17:26:34.545Z,98962.72
2022-09-12T17:29:14.483Z,98951.94
2022-09-12T17:31:43.281Z,98982.88
2022-09-12T17:34:29.483Z,98980.69
2022-09-12T17:37:10.703Z,98945.88
2022-09-12T17:39:43.899Z,98965.50
2022-09-12T17:42:19.475Z,98984.28
2022-09-12T17:44:55.052Z,98962.00
2022-09-12T17:47:22.136Z,98996.09
2022-09-12T17:49:51.020Z,98959.97
2022-09-12T17:52:23.163Z,98953.25
2022-09-12T17:54:49.933Z,98958.56
2022-09-12T17:57:17.064Z,98992.06
2022-09-12T17:59:53.933Z,98992.34
2022-09-12T18:02:20.975Z,98957.81
2022-09-12T18:04:48.516Z,99002.63
2022-09-12T18:07:25.018Z,98984.03
2022-09-12T18:10:10.228Z,98984.34
2022-09-12T18:12:37.454Z,98979.88
2022-09-12T18:15:11.976Z,98977.66
2022-09-12T18:17:40.324Z,98979.22
2022-09-12T18:20:07.472Z,98997.50
2022-09-12T18:22:34.397Z,98994.06
2022-09-12T18:25:01.493Z,98967.50
2022-09-12T18:27:28.646Z,99010.19
2022-09-12T18:30:20.171Z,98981.41
2022-09-12T18:33:04.788Z,99007.16
2022-09-12T18:35:32.436Z,98984.84
2022-09-12T18:38:02.143Z,98986.41
2022-09-12T18:40:29.581Z,98970.47
2022-09-12T18:42:57.014Z,98978.06
2022-09-12T18:45:27.198Z,98985.84
2022-09-12T18:47:54.945Z,99007.06
2022-09-12T18:50:25.035Z,98999.72
2022-09-12T18:52:56.706Z,99009.81
2022-09-12T18:55:28.810Z,99012.16
2022-09-12T18:57:56.378Z,99017.44
2022-09-12T19:00:23.594Z,99012.13
2022-09-12T19:02:51.039Z,99022.94
2022-09-12T19:05:18.672Z,99014.56
2022-09-12T19:07:52.012Z,99010.88
2022-09-12T19:10:21.662Z,99024.53
2022-09-12T19:12:49.096Z,99026.06
2022-09-12T19:15:16.294Z,99015.31
2022-09-12T19:17:45.071Z,98967.31
2022-09-12T19:20:13.242Z,99023.22
2022-09-12T19:22:40.560Z,99001.06
2022-09-12T19:25:08.438Z,99023.41
2022-09-12T19:27:36.412Z,99008.13
2022-09-12T19:30:04.643Z,98992.97
2022-09-12T19:32:32.698Z,98983.94
2022-09-12T19:35:01.472Z,99022.31
2022-09-12T19:37:30.420Z,98984.28
2022-09-12T19:39:59.232Z,98998.03
2022-09-12T19:42:49.399Z,99016.06
2022-09-12T19:45:16.301Z,99015.91
2022-09-12T19:47:44.047Z,99006.81
2022-09-12T19:50:12.032Z,99013.13
2022-09-12T19:52:39.078Z,98986.19
2022-09-12T19:55:09.531Z,99006.22
2022-09-12T19:57:36.573Z,98988.06
2022-09-12T20:00:07.243Z,98985.19
2022-09-12T20:02:34.593Z,98960.97
2022-09-12T20:05:02.057Z,99022.94
2022-09-12T20:07:32.940Z,99001.41
2022-09-12T20:10:00.040Z,98978.19
2022-09-12T20:12:33.817Z,98969.94
2022-09-12T20:15:02.251Z,99000.59
2022-09-12T20:17:29.099Z,99013.56
2022-09-12T20:19:56.896Z,99022.50
2022-09-12T20:22:25.313Z,98986.66
2022-09-12T20:24:52.703Z,99022.00
2022-09-12T20:27:19.608Z,99002.16
2022-09-12T20:29:46.652Z,99011.38
2022-09-12T20:32:16.514Z,99010.75
2022-09-12T20:34:43.752Z,99017.81
2022-09-12T20:37:10.834Z,98991.88
2022-09-12T20:39:37.825Z,98984.84
2022-09-12T20:42:04.722Z,98965.63
2022-09-12T20:44:44.288Z,98988.53
2022-09-12T20:47:11.561Z,98987.19
2022-09-12T20:49:38.334Z,98994.44
2022-09-12T20:52:11.111Z,98965.09
2022-09-12T20:54:39.981Z,99006.38
2022-09-12T20:57:09.912Z,98996.63
2022-09-12T20:59:40.596Z,99009.91
2022-09-12T21:02:07.421Z,98973.66
2022-09-12T21:04:34.216Z,99005.34
2022-09-12T21:07:00.920Z,99003.50
2022-09-12T21:09:27.962Z,98974.34
2022-09-12T21:11:54.706Z,99014.91
2022-09-12T21:14:21.466Z,98983.41
2022-09-12T21:16:48.407Z,99012.06
2022-09-12T21:19:15.153Z,99003.97
2022-09-12T21:21:41.972Z,99010.69
2022-09-12T21:24:15.082Z,98985.38
2022-09-12T21:26:41.845Z,99004.44
2022-09-12T21:29:09.006Z,98995.66
2022-09-12T21:31:35.868Z,99013.50
2022-09-12T21:34:02.993Z,98990.22
2022-09-12T21:36:29.928Z,99011.59
2022-09-12T21:38:59.593Z,99004.00
2022-09-12T21:41:26.379Z,99000.63
2022-09-12T21:43:53.498Z,98982.25
2022-09-12T21:46:20.501Z,99006.19
2022-09-12T21:48:47.337Z,99019.47
2022-09-12T21:51:14.073Z,98986.91
2022-09-12T21:53:40.888Z,99000.81
2022-09-12T21:56:09.129Z,98984.69
2022-09-12T21:58:37.182Z,98991.28
2022-09-12T22:01:05.985Z,99019.97
2022-09-12T22:03:33.042Z,98984.38
2022-09-12T22:06:01.882Z,98990.44
2022-09-12T22:08:30.236Z,99009.50
2022-09-12T22:11:02.315Z,98993.66
2022-09-12T22:13:32.530Z,98969.66
2022-09-12T22:16:03.357Z,99015.44
2022-09-12T22:18:32.735Z,98983.91
2022-09-12T22:21:08.551Z,98995.84
2022-09-12T22:23:53.847Z,98977.66
2022-09-12T22:26:20.632Z,98971.94
2022-09-12T22:28:47.790Z,98998.75
2022-09-12T22:31:15.249Z,98992.84
2022-09-12T22:33:42.370Z,98989.31
2022-09-12T22:36:09.992Z,98980.69
2022-09-12T22:38:37.249Z,98942.75
2022-09-12T22:41:06.505Z,98968.56
2022-09-12T22:43:34.704Z,98988.28
2022-09-12T22:46:02.249Z,98975.59
2022-09-12T22:48:29.054Z,98968.53
2022-09-12T22:50:55.853Z,98990.72
2022-09-12T22:53:22.625Z,98967.09
2022-09-12T22:55:49.853Z,98985.97
2022-09-12T22:58:16.719Z,98962.75
2022-09-12T23:03:33.654Z,98980.38
2022-09-12T23:06:00.522Z,98933.97
2022-09-12T23:08:29.802Z,98960.09
2022-09-12T23:11:03.316Z,98961.56
2022-09-12T23:13:30.122Z,98944.19
2022-09-12T23:15:58.707Z,98977.75
2022-09-12T23:18:26.050Z,98954.69
2022-09-12T23:21:00.495Z,98941.50
2022-09-12T23:23:28.221Z,98970.16
2022-09-12T23:26:12.936Z,98952.09
2022-09-12T23:28:40.972Z,98967.63
2022-09-12T23:31:09.892Z,98963.59
2022-09-12T23:33:36.966Z,98966.59
2022-09-12T23:36:11.568Z,98922.22
2022-09-12T23:38:39.543Z,98928.63
2022-09-12T23:41:06.999Z,98954.09
2022-09-12T23:43:34.286Z,98961.84
2022-09-12T23:46:01.807Z,98935.59
2022-09-12T23:48:28.666Z,98910.72
2022-09-12T23:50:55.457Z,98942.78
2022-09-12T23:53:22.999Z,98938.56
2022-09-12T23:55:50.137Z,98967.22
2022-09-12T23:58:17.723Z,98954.84
